Time;durP1;ratioP1;P1;durP2;ratioP2;P2;SDS_P1;SDS_P2;PMS_P1;PMS_P2;Temp;Humidity;BMP_temperature;BMP_pressure;BME280_temperature;BME280_humidity;BME280_pressure;Samples;Min_cycle;Max_cycle;Signal;HPM_P1;HPM_P2
2022/01/02 00:02:09;;;;;;;0.90;0.50;;;-0.30;99.90;;;;;;2220438;64;20103;-34
2022/01/02 00:04:47;;;;;;;0.80;0.37;;;-0.30;99.90;;;;;;2220305;64;20097;-35
2022/01/02 00:07:19;;;;;;;0.50;0.30;;;-0.30;99.90;;;;;;2220284;64;20147;-32
2022/01/02 00:09:52;;;;;;;1.37;0.60;;;-0.30;99.90;;;;;;2217454;64;20096;-34
2022/01/02 00:12:26;;;;;;;2.20;0.70;;;-0.30;99.90;;;;;;2217290;64;20111;-32
2022/01/02 00:14:58;;;;;;;1.35;0.60;;;-0.30;99.90;;;;;;2220372;64;20157;-33
2022/01/02 00:17:30;;;;;;;1.17;0.67;;;-0.30;99.90;;;;;;2220231;64;20084;-32
2022/01/02 00:20:10;;;;;;;1.43;0.60;;;-0.40;99.90;;;;;;2220219;64;20116;-32
2022/01/02 00:22:47;;;;;;;1.57;0.80;;;-0.30;99.90;;;;;;2220307;64;20480;-44
2022/01/02 00:25:27;;;;;;;1.43;0.73;;;-0.30;99.90;;;;;;2214401;64;20148;-33
2022/01/02 00:27:59;;;;;;;1.67;0.70;;;-0.30;99.90;;;;;;2220358;64;20556;-32
2022/01/02 00:30:32;;;;;;;1.60;0.70;;;-0.40;99.90;;;;;;2220188;64;20111;-32
2022/01/02 00:33:04;;;;;;;1.50;0.53;;;-0.40;99.90;;;;;;2217298;64;20088;-32
2022/01/02 00:35:37;;;;;;;0.90;0.53;;;-0.30;99.90;;;;;;2223358;64;20437;-32
2022/01/02 00:38:16;;;;;;;1.27;0.60;;;-0.30;99.90;;;;;;2217248;64;20093;-36
2022/01/02 00:40:50;;;;;;;0.90;0.60;;;-0.40;99.90;;;;;;2220197;64;20487;-39
2022/01/02 00:43:46;;;;;;;0.90;0.60;;;-0.40;99.90;;;;;;2220332;64;20088;-32
2022/01/02 00:46:18;;;;;;;;;;;-0.40;99.90;;;;;;2217266;64;20101;-34
2022/01/02 00:48:50;;;;;;;0.77;0.40;;;-0.30;99.90;;;;;;2220300;64;19976;-35
2022/01/02 00:51:47;;;;;;;1.07;0.50;;;-0.30;99.90;;;;;;2220176;64;20326;-38
2022/01/02 00:54:22;;;;;;;0.90;0.40;;;-0.30;99.90;;;;;;2220179;64;20093;-32
2022/01/02 00:56:54;;;;;;;1.00;0.50;;;-0.20;99.90;;;;;;2220205;64;20638;-32
2022/01/02 00:59:28;;;;;;;1.00;0.50;;;-0.20;99.90;;;;;;2217061;64;20097;-33
2022/01/02 01:02:03;;;;;;;1.17;0.50;;;-0.20;99.90;;;;;;2220257;64;20089;-32
2022/01/02 01:04:35;;;;;;;1.00;0.55;;;-0.20;99.90;;;;;;2220081;64;20100;-33
2022/01/02 01:07:06;;;;;;;1.70;0.50;;;-0.20;99.90;;;;;;2217184;64;20498;-32
2022/01/02 01:09:38;;;;;;;0.70;0.50;;;-0.20;99.90;;;;;;2220169;64;20095;-33
2022/01/02 01:12:10;;;;;;;1.33;0.63;;;-0.20;99.90;;;;;;2220232;64;20077;-33
2022/01/02 01:14:42;;;;;;;2.30;0.87;;;-0.20;99.90;;;;;;2220140;64;20108;-33
2022/01/02 01:17:15;;;;;;;1.27;0.50;;;-0.20;99.90;;;;;;2220028;64;20527;-35
2022/01/02 01:19:47;;;;;;;1.30;0.70;;;-0.20;99.90;;;;;;2216863;64;20118;-35
2022/01/02 01:22:19;;;;;;;1.77;0.87;;;-0.20;99.90;;;;;;2216909;64;20096;-32
2022/01/02 01:24:51;;;;;;;1.70;0.70;;;-0.20;99.90;;;;;;2219951;64;20120;-34
2022/01/02 01:27:23;;;;;;;1.80;0.50;;;-0.20;99.90;;;;;;2223027;64;20093;-32
2022/01/02 01:29:54;;;;;;;2.23;1.30;;;-0.10;99.90;;;;;;2219968;64;20115;-32
2022/01/02 01:32:26;;;;;;;3.47;1.20;;;-0.20;99.90;;;;;;2216955;64;20084;-32
2022/01/02 01:34:58;;;;;;;1.60;0.93;;;-0.10;99.90;;;;;;2219990;64;20205;-32
2022/01/02 01:37:30;;;;;;;3.17;1.17;;;-0.10;99.90;;;;;;2219970;64;20088;-36
2022/01/02 01:40:03;;;;;;;1.77;1.00;;;-0.10;99.90;;;;;;2220007;64;20135;-32
2022/01/02 01:42:43;;;;;;;1.90;0.97;;;-0.10;99.90;;;;;;2219963;64;20092;-32
2022/01/02 01:47:51;;;;;;;3.28;1.58;;;-0.20;99.90;;;;;;2219857;64;20085;-35
2022/01/02 01:50:25;;;;;;;2.87;1.00;;;-0.10;99.90;;;;;;2219936;64;20100;-33
2022/01/02 01:52:57;;;;;;;2.95;1.58;;;-0.10;99.90;;;;;;2219835;64;20088;-32
2022/01/02 01:55:29;;;;;;;1.43;0.83;;;-0.10;99.90;;;;;;2219718;64;20115;-33
2022/01/02 01:58:02;;;;;;;3.80;1.23;;;-0.10;99.90;;;;;;2219807;64;20522;-32
2022/01/02 02:00:34;;;;;;;3.53;1.57;;;-0.10;99.90;;;;;;2219882;64;20529;-38
2022/01/02 02:03:06;;;;;;;3.00;1.47;;;-0.10;99.90;;;;;;2219867;64;20159;-31
2022/01/02 02:05:37;;;;;;;4.40;1.67;;;-0.10;99.90;;;;;;2219902;64;20578;-32
2022/01/02 02:08:10;;;;;;;4.40;1.80;;;-0.10;99.90;;;;;;2222950;64;20135;-33
2022/01/02 02:10:46;;;;;;;4.83;1.60;;;-0.10;99.90;;;;;;2222983;64;20089;-35
2022/01/02 02:13:18;;;;;;;4.60;1.57;;;-0.10;99.90;;;;;;2220059;64;20089;-32
2022/01/02 02:15:50;;;;;;;6.00;2.30;;;-0.10;99.90;;;;;;2222943;64;20080;-32
2022/01/02 02:18:22;;;;;;;6.30;2.43;;;-0.10;99.90;;;;;;2219764;64;20170;-33
2022/01/02 02:20:54;;;;;;;5.90;2.77;;;-0.10;99.90;;;;;;2222798;64;20139;-32
2022/01/02 02:23:25;;;;;;;5.17;2.03;;;-0.10;99.90;;;;;;2219795;64;20100;-33
2022/01/02 02:25:57;;;;;;;3.83;1.80;;;-0.10;99.90;;;;;;2222884;64;20091;-32
2022/01/02 02:28:29;;;;;;;7.13;3.70;;;-0.10;99.90;;;;;;2223043;64;20092;-38
2022/01/02 02:31:00;;;;;;;7.77;2.90;;;-0.10;99.90;;;;;;2223049;64;20101;-37
2022/01/02 02:33:32;;;;;;;4.37;2.27;;;0.00;99.90;;;;;;2222904;64;20489;-33
2022/01/02 02:36:04;;;;;;;4.93;1.90;;;0.00;99.90;;;;;;2222952;64;20549;-33
2022/01/02 02:38:39;;;;;;;6.63;2.40;;;0.00;99.90;;;;;;2222932;64;20081;-33
2022/01/02 02:41:11;;;;;;;5.45;2.38;;;-0.10;99.90;;;;;;2222908;64;20097;-31
2022/01/02 02:43:48;;;;;;;5.67;2.13;;;0.00;99.90;;;;;;2223776;64;20080;-32
2022/01/02 02:49:10;;;;;;;4.93;1.67;;;0.00;99.90;;;;;;2220606;64;20604;-32
2022/01/02 02:51:51;;;;;;;3.57;1.43;;;0.00;99.90;;;;;;2223732;64;20224;-31
2022/01/02 02:54:25;;;;;;;5.07;1.50;;;0.00;99.90;;;;;;2220553;64;20088;-33
2022/01/02 02:57:00;;;;;;;3.80;1.57;;;0.00;99.90;;;;;;2223547;64;20100;-35
2022/01/02 02:59:33;;;;;;;3.27;1.33;;;0.00;99.90;;;;;;2223321;64;20097;-40
2022/01/02 03:02:05;;;;;;;3.30;1.77;;;0.00;99.90;;;;;;2223461;64;20092;-33
2022/01/02 03:04:37;;;;;;;4.80;2.10;;;0.10;99.90;;;;;;2223475;64;20144;-32
2022/01/02 03:07:09;;;;;;;3.77;1.60;;;0.00;99.90;;;;;;2223385;64;20119;-33
2022/01/02 03:09:47;;;;;;;5.17;1.63;;;0.10;99.90;;;;;;2223543;64;20607;-32
2022/01/02 03:12:19;;;;;;;3.67;0.93;;;0.10;99.90;;;;;;2223435;64;20091;-34
2022/01/02 03:14:51;;;;;;;4.50;1.07;;;0.10;99.90;;;;;;2223507;64;20111;-31
2022/01/02 03:17:23;;;;;;;5.83;1.23;;;0.10;99.90;;;;;;2220314;64;20169;-32
2022/01/02 03:19:55;;;;;;;4.97;1.20;;;0.10;99.90;;;;;;2223378;64;20176;-34
2022/01/02 03:22:27;;;;;;;3.03;1.20;;;0.10;99.90;;;;;;2223467;64;20099;-32
2022/01/02 03:24:59;;;;;;;3.10;0.90;;;0.10;99.90;;;;;;2217394;64;20696;-32
2022/01/02 03:27:32;;;;;;;2.40;1.00;;;0.20;99.90;;;;;;2220343;64;20115;-31
2022/01/02 03:30:04;;;;;;;4.17;1.27;;;0.20;99.90;;;;;;2220455;64;20156;-32
2022/01/02 03:32:36;;;;;;;2.57;0.90;;;0.10;99.90;;;;;;2220433;64;20497;-32
2022/01/02 03:35:08;;;;;;;4.23;0.70;;;0.20;99.90;;;;;;2220307;64;20172;-31
2022/01/02 03:37:40;;;;;;;4.63;1.17;;;0.20;99.90;;;;;;2220466;64;20197;-31
2022/01/02 03:40:12;;;;;;;6.17;1.83;;;0.20;99.90;;;;;;2220158;64;20089;-32
2022/01/02 03:42:44;;;;;;;3.67;0.90;;;0.20;99.90;;;;;;2220327;64;20201;-31
2022/01/02 03:45:17;;;;;;;1.57;0.83;;;0.20;99.90;;;;;;2220298;64;20594;-34
2022/01/02 03:47:49;;;;;;;1.10;0.60;;;0.20;99.90;;;;;;2220316;64;20556;-31
2022/01/02 03:50:21;;;;;;;1.03;0.47;;;0.20;99.90;;;;;;2220286;64;20437;-33
2022/01/02 03:52:53;;;;;;;3.60;0.70;;;0.20;99.90;;;;;;2220024;64;20096;-30
2022/01/02 03:55:25;;;;;;;2.37;0.70;;;0.30;99.90;;;;;;2217112;64;20584;-29
2022/01/02 03:57:57;;;;;;;1.13;0.60;;;0.30;99.90;;;;;;2220265;64;20586;-32
2022/01/02 04:00:29;;;;;;;1.07;0.50;;;0.30;99.90;;;;;;2220159;64;20096;-31
2022/01/02 04:03:02;;;;;;;1.00;0.50;;;0.30;99.90;;;;;;2223481;64;20177;-32
2022/01/02 04:05:34;;;;;;;0.80;0.40;;;0.30;99.90;;;;;;2223317;64;20089;-34
2022/01/02 04:08:06;;;;;;;2.00;0.60;;;0.30;99.90;;;;;;2217187;64;20111;-31
2022/01/02 04:10:38;;;;;;;1.17;0.53;;;0.20;99.90;;;;;;2220224;64;20189;-31
2022/01/02 04:13:10;;;;;;;1.43;0.60;;;0.30;99.90;;;;;;2220211;64;20085;-30
2022/01/02 04:15:42;;;;;;;2.63;0.73;;;0.20;99.90;;;;;;2220241;64;20097;-33
2022/01/02 04:18:14;;;;;;;0.90;0.60;;;0.20;99.90;;;;;;2220321;64;20100;-31
2022/01/02 04:20:49;;;;;;;1.73;0.60;;;0.30;99.90;;;;;;2219894;64;20668;-31
2022/01/02 04:23:20;;;;;;;1.58;0.98;;;0.30;99.90;;;;;;2220283;64;20096;-31
2022/01/02 04:25:52;;;;;;;1.87;0.40;;;0.30;99.90;;;;;;2219494;64;20097;-33
2022/01/02 04:28:24;;;;;;;0.80;0.40;;;0.30;99.90;;;;;;2216584;64;20088;-34
2022/01/02 04:30:56;;;;;;;2.47;0.40;;;0.30;99.90;;;;;;2216326;64;20107;-45
2022/01/02 04:33:28;;;;;;;0.70;0.30;;;0.30;99.90;;;;;;2216294;64;20089;-30
2022/01/02 04:35:59;;;;;;;0.60;0.30;;;0.30;99.90;;;;;;2216347;64;20152;-31
2022/01/02 04:38:31;;;;;;;0.57;0.20;;;0.30;99.90;;;;;;2216256;64;20105;-30
2022/01/02 04:41:03;;;;;;;0.90;0.30;;;0.30;99.90;;;;;;2216146;64;20584;-37
2022/01/02 04:43:35;;;;;;;0.60;0.20;;;0.30;99.90;;;;;;2216207;64;20089;-32
2022/01/02 04:46:07;;;;;;;0.47;0.20;;;0.30;99.90;;;;;;2216202;64;20108;-31
2022/01/02 04:48:39;;;;;;;0.43;0.30;;;0.30;99.90;;;;;;2216222;64;20085;-30
2022/01/02 04:51:11;;;;;;;1.17;0.53;;;0.30;99.90;;;;;;2213102;64;20587;-33
2022/01/02 04:53:48;;;;;;;1.03;0.40;;;0.30;99.90;;;;;;2216254;64;20170;-35
2022/01/02 04:56:20;;;;;;;1.20;0.40;;;0.40;99.90;;;;;;2216098;64;20573;-34
2022/01/02 04:58:52;;;;;;;3.33;0.57;;;0.30;99.90;;;;;;2216134;64;20089;-34
2022/01/02 05:01:25;;;;;;;0.70;0.37;;;0.40;99.90;;;;;;2216467;64;20119;-33
2022/01/02 05:03:58;;;;;;;1.13;0.40;;;0.40;99.90;;;;;;2216148;64;20112;-45
2022/01/02 05:06:30;;;;;;;7.40;0.50;;;0.40;99.90;;;;;;2216201;64;20096;-33
2022/01/02 05:09:03;;;;;;;36.93;1.30;;;0.40;99.90;;;;;;2216150;64;20481;-30
2022/01/02 05:11:36;;;;;;;5.10;0.40;;;0.40;99.90;;;;;;2213114;64;20179;-30
2022/01/02 05:14:09;;;;;;;2.20;0.40;;;0.30;99.90;;;;;;2216254;64;20148;-30
2022/01/02 05:16:41;;;;;;;0.50;0.20;;;0.30;99.90;;;;;;2216078;64;20140;-31
2022/01/02 05:19:14;;;;;;;2.53;0.60;;;0.30;99.90;;;;;;2216109;64;20120;-35
2022/01/02 05:21:47;;;;;;;3.40;1.13;;;0.30;99.90;;;;;;2216125;64;20104;-33
2022/01/02 05:24:20;;;;;;;2.33;0.80;;;0.20;99.90;;;;;;2216111;64;20469;-28
2022/01/02 05:26:53;;;;;;;4.07;1.13;;;0.20;99.90;;;;;;2216137;64;20099;-30
2022/01/02 05:29:25;;;;;;;2.40;0.83;;;0.10;99.90;;;;;;2216337;64;20577;-30
2022/01/02 05:31:57;;;;;;;6.00;1.50;;;0.00;99.90;;;;;;2216273;64;20089;-32
2022/01/02 05:34:30;;;;;;;5.57;1.27;;;0.00;99.90;;;;;;2216171;64;20120;-30
2022/01/02 05:37:04;;;;;;;3.63;1.43;;;-0.10;99.90;;;;;;2216152;64;20156;-33
2022/01/02 05:39:36;;;;;;;5.93;1.67;;;-0.10;99.90;;;;;;2216195;64;20112;-31
2022/01/02 05:42:08;;;;;;;4.93;1.80;;;-0.10;99.90;;;;;;2216149;64;20141;-30
2022/01/02 05:44:40;;;;;;;5.47;1.83;;;-0.10;99.90;;;;;;2216308;64;20089;-32
2022/01/02 05:47:11;;;;;;;5.97;1.13;;;-0.10;99.90;;;;;;2216166;64;20081;-31
2022/01/02 05:49:43;;;;;;;10.77;1.83;;;-0.20;99.90;;;;;;2216099;64;20104;-29
2022/01/02 05:52:16;;;;;;;10.10;1.90;;;-0.20;99.90;;;;;;2216143;64;20228;-30
2022/01/02 05:54:50;;;;;;;7.23;2.20;;;-0.10;99.90;;;;;;2219126;64;20101;-31
2022/01/02 05:57:26;;;;;;;3.50;1.50;;;-0.10;99.90;;;;;;2219017;64;20089;-30
2022/01/02 05:59:58;;;;;;;4.63;1.60;;;-0.10;99.90;;;;;;2216140;64;20101;-28
2022/01/02 06:02:31;;;;;;;5.17;1.70;;;0.00;99.90;;;;;;2216212;64;20161;-30
2022/01/02 06:05:06;;;;;;;3.47;1.50;;;0.00;99.90;;;;;;2216214;64;20461;-32
2022/01/02 06:07:40;;;;;;;6.40;1.67;;;0.00;99.90;;;;;;2216025;64;20101;-30
2022/01/02 06:10:16;;;;;;;6.63;2.65;;;0.00;99.90;;;;;;2216070;64;20093;-33
2022/01/02 06:12:49;;;;;;;7.22;2.65;;;0.00;99.90;;;;;;2216180;64;20085;-31
2022/01/02 06:15:23;;;;;;;9.93;3.27;;;0.00;99.90;;;;;;2216092;64;20096;-33
2022/01/02 06:17:59;;;;;;;7.38;3.80;;;0.00;99.90;;;;;;2214539;64;20099;-31
2022/01/02 06:20:34;;;;;;;9.85;4.18;;;0.00;99.90;;;;;;2217339;64;20104;-43
2022/01/02 06:23:07;;;;;;;;;;;-0.10;99.90;;;;;;2217663;64;20108;-29
2022/01/02 06:25:41;;;;;;;10.97;4.67;;;-0.10;99.90;;;;;;2218698;64;19983;-28
2022/01/02 06:28:15;;;;;;;16.15;6.25;;;-0.20;99.90;;;;;;2221093;64;20107;-30
2022/01/02 06:30:47;;;;;;;16.63;6.13;;;-0.20;99.90;;;;;;2224135;64;20101;-32
2022/01/02 06:33:20;;;;;;;15.87;5.63;;;-0.30;99.90;;;;;;2217908;64;20642;-29
2022/01/02 06:35:57;;;;;;;14.23;5.70;;;-0.30;99.90;;;;;;2220965;64;20281;-30
2022/01/02 06:38:31;;;;;;;5.55;2.95;;;-0.30;99.90;;;;;;2221115;64;20657;-30
2022/01/02 06:41:03;;;;;;;10.07;3.63;;;-0.70;99.90;;;;;;2220863;64;20097;-37
2022/01/02 06:43:35;;;;;;;4.10;1.60;;;-1.00;99.90;;;;;;2221172;64;20166;-29
2022/01/02 06:46:07;;;;;;;5.90;2.20;;;-1.30;99.90;;;;;;2221102;64;20504;-27
2022/01/02 06:48:38;;;;;;;4.17;1.80;;;-1.30;99.90;;;;;;2221158;64;20140;-28
2022/01/02 06:51:10;;;;;;;6.97;2.27;;;-1.40;99.90;;;;;;2224182;64;20468;-28
2022/01/02 06:53:43;;;;;;;6.53;2.27;;;-1.50;99.90;;;;;;2224141;64;20107;-29
2022/01/02 06:56:19;;;;;;;6.40;3.17;;;-1.70;99.90;;;;;;2220834;64;20643;-30
2022/01/02 06:58:54;;;;;;;3.40;1.70;;;-1.90;99.90;;;;;;2221007;64;20084;-32
2022/01/02 07:01:28;;;;;;;5.35;2.88;;;-1.90;99.90;;;;;;2220904;64;20123;-32
2022/01/02 07:04:01;;;;;;;5.77;1.97;;;-2.00;99.90;;;;;;2221231;64;20081;-29
2022/01/02 07:06:34;;;;;;;4.50;2.10;;;-2.00;99.90;;;;;;2221081;64;20444;-29
2022/01/02 07:09:07;;;;;;;3.30;1.93;;;-2.10;99.90;;;;;;2220805;64;20492;-31
2022/01/02 07:11:40;;;;;;;5.07;2.40;;;-2.00;99.90;;;;;;2224008;64;20103;-31
2022/01/02 07:14:13;;;;;;;8.67;5.07;;;-2.10;99.90;;;;;;2221034;64;20092;-30
2022/01/02 07:16:47;;;;;;;8.43;4.20;;;-2.20;99.90;;;;;;2220899;64;20198;-30
2022/01/02 07:19:21;;;;;;;6.88;3.88;;;-2.20;99.90;;;;;;2220698;64;20491;-30
2022/01/02 07:21:55;;;;;;;5.00;2.00;;;-2.30;99.90;;;;;;2223905;64;20476;-31
2022/01/02 07:24:28;;;;;;;8.63;4.07;;;-2.30;99.90;;;;;;2220779;64;20104;-30
2022/01/02 07:27:01;;;;;;;6.20;3.50;;;-2.30;99.90;;;;;;2223719;64;20096;-32
2022/01/02 07:29:34;;;;;;;7.73;4.23;;;-2.20;99.90;;;;;;2220353;64;20104;-31
2022/01/02 07:32:06;;;;;;;12.50;3.93;;;-2.30;99.90;;;;;;2223414;64;20092;-33
2022/01/02 07:34:39;;;;;;;13.30;6.40;;;-2.30;99.90;;;;;;2223128;64;20103;-33
2022/01/02 07:37:11;;;;;;;10.97;5.27;;;-2.40;99.90;;;;;;2223312;64;20659;-30
2022/01/02 07:39:44;;;;;;;10.60;5.23;;;-2.40;99.90;;;;;;2220244;64;20088;-37
2022/01/02 07:42:16;;;;;;;15.23;5.90;;;-2.40;99.90;;;;;;2223181;64;20193;-35
2022/01/02 07:44:48;;;;;;;6.80;2.63;;;-2.40;99.90;;;;;;2223356;64;20118;-33
2022/01/02 07:47:21;;;;;;;7.97;2.67;;;-2.40;99.90;;;;;;2223238;64;20085;-33
2022/01/02 07:49:53;;;;;;;12.50;5.93;;;-2.40;99.90;;;;;;2220208;64;20088;-40
2022/01/02 07:52:25;;;;;;;9.87;3.50;;;-2.40;99.90;;;;;;2223278;64;20089;-32
2022/01/02 07:54:59;;;;;;;9.70;4.60;;;-2.40;99.90;;;;;;2220080;64;20096;-33
2022/01/02 07:57:31;;;;;;;6.43;3.50;;;-2.40;99.90;;;;;;2223162;64;20101;-32
2022/01/02 08:00:05;;;;;;;6.40;2.43;;;-2.40;99.90;;;;;;2223230;64;20100;-33
2022/01/02 08:02:40;;;;;;;4.13;1.87;;;-2.40;99.90;;;;;;2220059;64;20123;-33
2022/01/02 08:05:14;;;;;;;6.27;1.63;;;-2.40;99.90;;;;;;2220208;64;20158;-34
2022/01/02 08:07:47;;;;;;;5.20;1.93;;;-2.50;99.90;;;;;;2223182;64;20186;-37
2022/01/02 08:10:20;;;;;;;3.63;1.80;;;-2.50;99.90;;;;;;2220152;64;20283;-35
2022/01/02 08:12:57;;;;;;;6.33;2.33;;;-2.50;99.90;;;;;;2222977;64;20096;-32
2022/01/02 08:15:32;;;;;;;4.22;1.42;;;-2.50;99.90;;;;;;2220044;64;20122;-31
2022/01/02 08:18:05;;;;;;;2.83;1.30;;;-2.50;99.90;;;;;;2223364;64;20068;-40
2022/01/02 08:20:46;;;;;;;4.30;1.30;;;-2.50;99.90;;;;;;2222829;64;20104;-31
2022/01/02 08:23:19;;;;;;;7.93;2.10;;;-2.50;99.90;;;;;;2223172;64;20084;-32
2022/01/02 08:25:52;;;;;;;3.33;1.00;;;-2.50;99.90;;;;;;2221889;64;20108;-31
2022/01/02 08:28:25;;;;;;;5.37;2.60;;;-2.50;99.90;;;;;;2208119;64;20094;-32
2022/01/02 08:30:58;;;;;;;3.10;1.20;;;-2.50;99.90;;;;;;2208198;64;20109;-32
2022/01/02 08:33:31;;;;;;;3.17;0.93;;;-2.50;99.90;;;;;;2208186;64;20096;-34
2022/01/02 08:36:05;;;;;;;3.57;1.30;;;-2.50;99.90;;;;;;2208215;64;20100;-32
2022/01/02 08:38:38;;;;;;;6.40;2.13;;;-2.40;99.90;;;;;;2207985;64;20597;-33
2022/01/02 08:41:10;;;;;;;4.80;1.37;;;-2.30;99.90;;;;;;2207996;64;20109;-44
2022/01/02 08:43:44;;;;;;;3.93;1.27;;;-2.20;99.90;;;;;;2208256;64;20086;-33
2022/01/02 08:46:18;;;;;;;7.07;1.73;;;-2.20;99.90;;;;;;2204888;64;20105;-34
2022/01/02 08:48:51;;;;;;;3.67;1.70;;;-2.20;99.90;;;;;;2208034;64;20164;-31
2022/01/02 08:51:27;;;;;;;4.97;1.50;;;-2.20;99.90;;;;;;2208098;64;20149;-32
2022/01/02 08:54:01;;;;;;;0.77;0.63;;;-2.20;99.90;;;;;;2211103;64;20147;-41
2022/01/02 08:56:33;;;;;;;3.43;1.07;;;-2.30;99.90;;;;;;2208006;64;20552;-33
2022/01/02 08:59:06;;;;;;;1.83;1.20;;;-2.30;99.90;;;;;;2208034;64;20109;-37
2022/01/02 09:01:38;;;;;;;3.90;1.33;;;-2.30;99.90;;;;;;2208240;64;20097;-34
2022/01/02 09:04:11;;;;;;;5.07;1.50;;;-2.20;99.90;;;;;;2208206;64;20082;-33
2022/01/02 09:06:45;;;;;;;5.67;1.93;;;-2.20;99.90;;;;;;2217311;64;20085;-37
2022/01/02 09:09:21;;;;;;;2.87;0.90;;;-2.10;99.90;;;;;;2219773;64;20096;-41
2022/01/02 09:11:54;;;;;;;7.07;2.40;;;-2.20;99.90;;;;;;2219828;64;20171;-36
2022/01/02 09:14:29;;;;;;;8.13;2.20;;;-2.10;99.90;;;;;;2220007;64;20377;-35
2022/01/02 09:17:04;;;;;;;5.03;2.30;;;-2.20;99.90;;;;;;2213770;64;20165;-42
2022/01/02 09:19:38;;;;;;;6.18;2.85;;;-2.00;99.90;;;;;;2216839;64;20096;-33
2022/01/02 09:22:12;;;;;;;;;;;-1.90;99.90;;;;;;2220160;64;20095;-35
2022/01/02 09:24:47;;;;;;;5.30;1.93;;;-2.00;99.90;;;;;;2219818;64;19986;-33
2022/01/02 09:27:20;;;;;;;5.72;2.65;;;-1.90;99.90;;;;;;2219851;64;20088;-34
2022/01/02 09:29:54;;;;;;;3.03;1.47;;;-2.00;99.90;;;;;;2220159;64;20155;-32
2022/01/02 09:32:28;;;;;;;5.97;2.70;;;-1.90;99.90;;;;;;2216885;64;20100;-37
2022/01/02 09:35:03;;;;;;;8.70;2.00;;;-1.90;99.90;;;;;;2223079;64;20088;-34
2022/01/02 09:37:36;;;;;;;6.03;2.50;;;-1.90;99.90;;;;;;2223103;64;20097;-36
2022/01/02 09:40:09;;;;;;;6.40;2.97;;;-2.00;99.90;;;;;;2223077;64;20096;-37
2022/01/02 09:42:42;;;;;;;8.53;3.57;;;-1.90;99.90;;;;;;2223167;64;20173;-31
2022/01/02 09:45:16;;;;;;;8.30;3.00;;;-1.70;99.90;;;;;;2220025;64;20172;-37
2022/01/02 09:47:51;;;;;;;8.82;2.58;;;-1.70;99.90;;;;;;2223085;64;20169;-33
2022/01/02 09:50:24;;;;;;;7.27;1.10;;;-1.70;99.90;;;;;;2218667;64;20468;-37
2022/01/02 09:52:57;;;;;;;3.70;1.97;;;-1.80;99.90;;;;;;2215780;64;20085;-35
2022/01/02 09:55:30;;;;;;;5.77;2.13;;;-1.80;99.90;;;;;;2215675;64;20093;-32
2022/01/02 09:58:10;;;;;;;8.07;2.80;;;-1.70;99.90;;;;;;2215915;64;20085;-32
2022/01/02 10:00:46;;;;;;;5.17;2.13;;;-1.60;99.90;;;;;;2215855;64;20100;-32
2022/01/02 10:03:20;;;;;;;4.70;1.53;;;-1.70;99.90;;;;;;2215741;64;20089;-31
2022/01/02 10:05:59;;;;;;;2.03;0.68;;;-1.70;99.90;;;;;;2212795;64;20073;-31
2022/01/02 10:08:35;;;;;;;5.97;1.60;;;-1.90;99.90;;;;;;2215777;64;20085;-31
2022/01/02 10:11:22;;;;;;;8.43;2.87;;;-1.90;99.90;;;;;;2215728;64;20092;-31
2022/01/02 10:14:01;;;;;;;6.77;3.03;;;-1.80;99.90;;;;;;2215783;64;20096;-31
2022/01/02 10:16:35;;;;;;;6.80;1.90;;;-1.90;99.90;;;;;;2215644;64;20506;-31
2022/01/02 10:19:19;;;;;;;2.22;1.42;;;-1.90;99.90;;;;;;2215921;64;20187;-32
2022/01/02 10:22:00;;;;;;;7.17;2.50;;;-2.00;99.90;;;;;;2212749;64;20099;-33
2022/01/02 10:24:40;;;;;;;7.97;3.77;;;-1.90;99.90;;;;;;2212792;64;20103;-32
2022/01/02 10:27:21;;;;;;;6.43;3.53;;;-1.80;99.90;;;;;;2215315;64;20093;-35
2022/01/02 10:29:56;;;;;;;6.80;2.67;;;-1.70;99.90;;;;;;2219057;64;20082;-32
2022/01/02 10:32:37;;;;;;;8.60;3.30;;;-2.10;99.90;;;;;;2219057;64;20160;-32
2022/01/02 10:35:23;;;;;;;11.53;3.77;;;-2.00;99.90;;;;;;2218926;64;20104;-33
2022/01/02 10:38:00;;;;;;;5.57;2.20;;;-2.00;99.90;;;;;;2215985;64;20093;-32
2022/01/02 10:40:41;;;;;;;9.70;3.00;;;-2.00;99.90;;;;;;2215852;64;20093;-33
2022/01/02 10:43:32;;;;;;;7.07;2.53;;;-2.00;99.90;;;;;;2216013;64;20234;-32
2022/01/02 10:46:09;;;;;;;9.43;3.60;;;-2.10;99.90;;;;;;2218999;64;20461;-33
2022/01/02 10:48:44;;;;;;;5.77;2.43;;;-2.20;99.90;;;;;;2219080;64;20077;-36
2022/01/02 10:51:19;;;;;;;10.13;4.50;;;-2.20;99.90;;;;;;2216031;64;20137;-42
2022/01/02 10:53:59;;;;;;;8.43;3.65;;;-2.20;99.90;;;;;;2215501;64;20097;-33
2022/01/02 10:56:33;;;;;;;16.87;6.13;;;-2.10;99.90;;;;;;2212700;64;20169;-33
2022/01/02 10:59:10;;;;;;;8.90;3.20;;;-2.10;99.90;;;;;;2215658;64;20619;-32
2022/01/02 11:01:43;;;;;;;10.63;4.45;;;-2.20;99.90;;;;;;2207776;64;20093;-35
2022/01/02 11:04:16;;;;;;;8.00;3.17;;;-2.30;99.90;;;;;;2203929;64;20471;-33
2022/01/02 11:06:49;;;;;;;10.83;4.73;;;-2.30;99.90;;;;;;2203909;65;20193;-37
2022/01/02 11:09:21;;;;;;;11.30;4.47;;;-2.30;99.90;;;;;;2203858;64;20113;-32
2022/01/02 11:11:52;;;;;;;9.40;5.00;;;-2.30;99.90;;;;;;2203901;65;20094;-33
2022/01/02 11:14:25;;;;;;;11.10;5.23;;;-2.30;99.90;;;;;;2203954;65;20144;-32
2022/01/02 11:16:58;;;;;;;7.70;3.47;;;-2.30;99.90;;;;;;2204087;65;20145;-33
2022/01/02 11:19:31;;;;;;;14.83;6.70;;;-2.30;99.90;;;;;;2203865;65;20087;-34
2022/01/02 11:22:05;;;;;;;6.63;3.47;;;-2.30;99.90;;;;;;2203988;65;20082;-31
2022/01/02 11:24:46;;;;;;;8.52;3.00;;;-2.30;99.90;;;;;;2201860;65;20115;-33
2022/01/02 11:27:36;;;;;;;8.23;4.47;;;-2.40;99.90;;;;;;2202974;65;20099;-44
2022/01/02 11:30:28;;;;;;;11.03;4.50;;;-2.40;99.90;;;;;;2202971;64;20162;-32
2022/01/02 11:33:13;;;;;;;8.97;4.23;;;-2.50;99.90;;;;;;2203047;65;20095;-32
2022/01/02 11:35:48;;;;;;;11.80;5.13;;;-2.40;99.90;;;;;;2204797;64;20132;-41
2022/01/02 11:38:22;;;;;;;17.85;6.65;;;-2.50;99.90;;;;;;2208277;64;20094;-39
2022/01/02 11:41:00;;;;;;;11.55;4.35;;;-2.60;99.90;;;;;;2212364;64;20101;-32
2022/01/02 11:43:46;;;;;;;9.60;3.90;;;-2.60;99.90;;;;;;2212489;64;20077;-34
2022/01/02 11:46:37;;;;;;;11.13;5.30;;;-2.60;99.90;;;;;;2212531;64;20094;-31
2022/01/02 11:49:16;;;;;;;8.43;3.97;;;-2.70;99.90;;;;;;2212461;64;20555;-32
2022/01/02 11:52:06;;;;;;;8.73;3.47;;;-2.70;99.90;;;;;;2212931;64;20108;-32
2022/01/02 11:54:46;;;;;;;10.47;4.03;;;-2.80;99.90;;;;;;2212706;64;20166;-34
2022/01/02 11:57:23;;;;;;;6.40;2.67;;;-2.80;99.90;;;;;;2216521;64;20099;-33
2022/01/02 11:59:58;;;;;;;11.83;5.13;;;-2.80;99.90;;;;;;2216218;64;20097;-34
2022/01/02 12:02:31;;;;;;;;;;;-2.90;99.90;;;;;;2219200;64;20726;-32
2022/01/02 12:05:14;;;;;;;10.37;2.70;;;-3.00;99.90;;;;;;2215863;64;20007;-38
2022/01/02 12:07:53;;;;;;;5.37;2.47;;;-3.00;99.90;;;;;;2216099;64;20227;-37
2022/01/02 12:10:34;;;;;;;8.97;2.87;;;-3.10;99.90;;;;;;2216043;64;20104;-33
2022/01/02 12:13:10;;;;;;;10.37;5.23;;;-3.10;99.90;;;;;;2207310;64;20102;-33
2022/01/02 12:15:42;;;;;;;11.45;4.80;;;-3.10;99.90;;;;;;2204215;64;20120;-33
2022/01/02 12:18:28;;;;;;;7.20;2.63;;;-3.10;99.90;;;;;;2204451;64;20518;-32
2022/01/02 12:21:07;;;;;;;7.57;2.27;;;-3.20;99.90;;;;;;2204266;64;20097;-40
2022/01/02 12:23:45;;;;;;;8.27;3.43;;;-3.20;99.90;;;;;;2207548;64;20086;-34
2022/01/02 12:26:21;;;;;;;10.23;4.70;;;-3.30;99.90;;;;;;2208240;64;20195;-32
2022/01/02 12:29:05;;;;;;;9.83;2.93;;;-3.30;99.90;;;;;;2200621;65;20260;-33
2022/01/02 12:31:44;;;;;;;7.57;4.10;;;-3.30;99.90;;;;;;2200614;65;20091;-33
2022/01/02 12:34:19;;;;;;;4.90;1.83;;;-3.30;99.90;;;;;;2200294;65;20228;-33
2022/01/02 12:36:57;;;;;;;8.67;4.20;;;-3.40;99.90;;;;;;2200622;65;20579;-33
2022/01/02 12:39:44;;;;;;;7.60;2.40;;;-3.40;99.90;;;;;;2200480;65;20169;-32
2022/01/02 12:42:17;;;;;;;8.20;3.73;;;-3.40;99.90;;;;;;2200519;65;20172;-33
2022/01/02 12:44:50;;;;;;;8.13;3.40;;;-3.50;99.90;;;;;;2203645;65;20261;-32
2022/01/02 12:47:24;;;;;;;7.90;3.00;;;-3.50;99.90;;;;;;2203585;65;20154;-31
2022/01/02 12:50:00;;;;;;;;;;;-3.50;99.90;;;;;;2203760;65;20113;-32
2022/01/02 12:52:33;;;;;;;;;;;-3.50;99.90;;;;;;2203766;65;19985;-31
2022/01/02 12:55:13;;;;;;;6.07;2.72;;;-3.50;99.90;;;;;;2203442;65;19994;-32
2022/01/02 12:57:45;;;;;;;10.37;1.63;;;-3.50;99.90;;;;;;2197487;65;20082;-34
2022/01/02 13:00:22;;;;;;;8.20;3.50;;;-3.50;99.90;;;;;;2200336;65;20113;-32
2022/01/02 13:02:59;;;;;;;6.57;3.10;;;-3.50;99.90;;;;;;2202922;64;20111;-33
2022/01/02 13:05:32;;;;;;;5.63;2.63;;;-3.50;99.90;;;;;;2212583;64;20553;-33
2022/01/02 13:08:08;;;;;;;3.83;2.03;;;-3.50;99.90;;;;;;2219919;64;20111;-34
2022/01/02 13:10:43;;;;;;;5.53;2.60;;;-3.50;99.90;;;;;;2219996;64;20148;-34
2022/01/02 13:13:30;;;;;;;5.75;2.38;;;-3.50;99.90;;;;;;2219776;64;20120;-32
2022/01/02 13:16:08;;;;;;;8.20;4.23;;;-3.50;99.90;;;;;;2219889;64;20185;-36
2022/01/02 13:18:42;;;;;;;5.80;2.43;;;-3.50;99.90;;;;;;2216695;64;20123;-34
2022/01/02 13:21:17;;;;;;;7.40;3.80;;;-3.60;99.90;;;;;;2219585;64;20108;-34
2022/01/02 13:24:23;;;;;;;7.53;3.47;;;-3.60;99.90;;;;;;2219868;64;20081;-35
2022/01/02 13:26:57;;;;;;;6.33;3.30;;;-3.60;99.90;;;;;;2219881;64;20093;-49
2022/01/02 13:29:30;;;;;;;2.80;1.27;;;-3.60;99.90;;;;;;2219999;64;20177;-32
2022/01/02 13:32:16;;;;;;;5.33;1.90;;;-3.60;99.90;;;;;;2222842;64;20560;-32
2022/01/02 13:35:10;;;;;;;5.10;2.00;;;-3.70;99.90;;;;;;2222973;64;20673;-33